sensor_id;sensor_type;location;lat;lon;timestamp;pressure;altitude;pressure_sealevel;temperature;humidity
21781;BME280;52576;53.614;9.894;2023-12-20T00:00:26;100722.44;;;4.48;100.00
21781;BME280;52576;53.614;9.894;2023-12-20T00:02:29;100725.94;;;4.47;100.00
21781;BME280;52576;53.614;9.894;2023-12-20T00:04:32;100721.72;;;4.44;100.00
21781;BME280;52576;53.614;9.894;2023-12-20T00:06:36;100731.25;;;4.43;100.00
21781;BME280;52576;53.614;9.894;2023-12-20T00:08:38;100720.13;;;4.41;100.00
21781;BME280;52576;53.614;9.894;2023-12-20T00:10:42;100712.47;;;4.38;100.00
21781;BME280;52576;53.614;9.894;2023-12-20T00:12:45;100718.56;;;4.37;100.00
21781;BME280;52576;53.614;9.894;2023-12-20T00:14:48;100715.19;;;4.35;100.00
21781;BME280;52576;53.614;9.894;2023-12-20T00:16:51;100715.25;;;4.34;100.00
21781;BME280;52576;53.614;9.894;2023-12-20T00:18:54;100722.19;;;4.33;100.00
21781;BME280;52576;53.614;9.894;2023-12-20T00:20:57;100716.09;;;4.34;100.00
21781;BME280;52576;53.614;9.894;2023-12-20T00:23:00;100703.97;;;4.35;100.00
21781;BME280;52576;53.614;9.894;2023-12-20T00:25:04;100705.59;;;4.37;100.00
21781;BME280;52576;53.614;9.894;2023-12-20T00:27:08;100702.88;;;4.40;100.00
21781;BME280;52576;53.614;9.894;2023-12-20T00:29:11;100699.19;;;4.44;100.00
21781;BME280;52576;53.614;9.894;2023-12-20T00:31:14;100691.41;;;4.44;100.00
21781;BME280;52576;53.614;9.894;2023-12-20T00:33:17;100688.81;;;4.44;100.00
21781;BME280;52576;53.614;9.894;2023-12-20T00:35:20;100686.22;;;4.44;100.00
21781;BME280;52576;53.614;9.894;2023-12-20T00:37:23;100686.22;;;4.44;100.00
21781;BME280;52576;53.614;9.894;2023-12-20T00:39:28;100689.59;;;4.47;100.00
21781;BME280;52576;53.614;9.894;2023-12-20T00:41:31;100694.66;;;4.50;100.00
21781;BME280;52576;53.614;9.894;2023-12-20T00:43:33;100685.84;;;4.54;100.00
21781;BME280;52576;53.614;9.894;2023-12-20T00:45:36;100679.69;;;4.56;100.00
21781;BME280;52576;53.614;9.894;2023-12-20T00:47:40;100676.88;;;4.61;100.00
21781;BME280;52576;53.614;9.894;2023-12-20T00:49:44;100675.84;;;4.65;100.00
21781;BME280;52576;53.614;9.894;2023-12-20T00:51:47;100670.50;;;4.68;100.00
21781;BME280;52576;53.614;9.894;2023-12-20T00:53:52;100669.44;;;4.72;100.00
21781;BME280;52576;53.614;9.894;2023-12-20T00:55:58;100671.06;;;4.74;100.00
21781;BME280;52576;53.614;9.894;2023-12-20T00:58:01;100674.50;;;4.75;100.00
21781;BME280;52576;53.614;9.894;2023-12-20T01:00:05;100658.94;;;4.75;100.00
21781;BME280;52576;53.614;9.894;2023-12-20T01:02:11;100662.44;;;4.74;100.00
21781;BME280;52576;53.614;9.894;2023-12-20T01:04:13;100662.56;;;4.71;100.00
21781;BME280;52576;53.614;9.894;2023-12-20T01:06:16;100653.16;;;4.68;100.00
21781;BME280;52576;53.614;9.894;2023-12-20T01:08:20;100661.03;;;4.67;100.00
21781;BME280;52576;53.614;9.894;2023-12-20T01:10:23;100668.97;;;4.64;100.00
21781;BME280;52576;53.614;9.894;2023-12-20T01:12:31;100678.56;;;4.62;100.00
21781;BME280;52576;53.614;9.894;2023-12-20T01:14:34;100661.44;;;4.58;100.00
21781;BME280;52576;53.614;9.894;2023-12-20T01:16:37;100662.34;;;4.57;100.00
21781;BME280;52576;53.614;9.894;2023-12-20T01:18:40;100661.56;;;4.55;100.00
21781;BME280;52576;53.614;9.894;2023-12-20T01:20:42;100653.84;;;4.53;100.00
21781;BME280;52576;53.614;9.894;2023-12-20T01:22:45;100648.78;;;4.50;100.00
21781;BME280;52576;53.614;9.894;2023-12-20T01:24:48;100653.25;;;4.47;100.00
21781;BME280;52576;53.614;9.894;2023-12-20T01:26:51;100651.59;;;4.46;100.00
21781;BME280;52576;53.614;9.894;2023-12-20T01:28:56;100648.22;;;4.43;100.00
21781;BME280;52576;53.614;9.894;2023-12-20T01:30:59;100647.47;;;4.41;100.00
21781;BME280;52576;53.614;9.894;2023-12-20T01:33:02;100655.38;;;4.38;100.00
21781;BME280;52576;53.614;9.894;2023-12-20T01:35:06;100651.16;;;4.36;100.00
21781;BME280;52576;53.614;9.894;2023-12-20T01:37:09;100651.28;;;4.33;100.00
21781;BME280;52576;53.614;9.894;2023-12-20T01:39:12;100648.75;;;4.31;100.00
21781;BME280;52576;53.614;9.894;2023-12-20T01:41:28;100646.22;;;4.30;100.00
21781;BME280;52576;53.614;9.894;2023-12-20T01:43:31;100644.53;;;4.29;100.00
21781;BME280;52576;53.614;9.894;2023-12-20T01:45:50;100644.59;;;4.27;100.00
21781;BME280;52576;53.614;9.894;2023-12-20T01:47:53;100648.88;;;4.28;100.00
21781;BME280;52576;53.614;9.894;2023-12-20T01:49:55;100648.88;;;4.28;100.00
21781;BME280;52576;53.614;9.894;2023-12-20T01:51:59;100640.19;;;4.29;100.00
21781;BME280;52576;53.614;9.894;2023-12-20T01:54:03;100650.44;;;4.32;100.00
21781;BME280;52576;53.614;9.894;2023-12-20T01:56:08;100649.53;;;4.33;100.00
21781;BME280;52576;53.614;9.894;2023-12-20T01:58:12;100638.25;;;4.34;100.00
21781;BME280;52576;53.614;9.894;2023-12-20T02:00:16;100633.91;;;4.35;100.00
21781;BME280;52576;53.614;9.894;2023-12-20T02:02:25;100631.31;;;4.35;100.00
21781;BME280;52576;53.614;9.894;2023-12-20T02:04:29;100622.69;;;4.34;100.00
21781;BME280;52576;53.614;9.894;2023-12-20T02:06:33;100633.06;;;4.34;100.00
21781;BME280;52576;53.614;9.894;2023-12-20T02:08:36;100626.19;;;4.33;100.00
21781;BME280;52576;53.614;9.894;2023-12-20T02:10:39;100619.19;;;4.35;100.00
21781;BME280;52576;53.614;9.894;2023-12-20T02:12:43;100618.34;;;4.35;100.00
21781;BME280;52576;53.614;9.894;2023-12-20T02:14:46;100617.50;;;4.34;100.00
21781;BME280;52576;53.614;9.894;2023-12-20T02:16:49;100607.09;;;4.34;100.00
21781;BME280;52576;53.614;9.894;2023-12-20T02:18:54;100612.28;;;4.34;100.00
21781;BME280;52576;53.614;9.894;2023-12-20T02:20:57;100607.94;;;4.35;100.00
21781;BME280;52576;53.614;9.894;2023-12-20T02:23:01;100608.78;;;4.35;100.00
21781;BME280;52576;53.614;9.894;2023-12-20T02:25:05;100605.28;;;4.36;100.00
21781;BME280;52576;53.614;9.894;2023-12-20T02:27:08;100606.97;;;4.37;100.00
21781;BME280;52576;53.614;9.894;2023-12-20T02:29:10;100603.34;;;4.41;100.00
21781;BME280;52576;53.614;9.894;2023-12-20T02:31:13;100604.94;;;4.44;100.00
21781;BME280;52576;53.614;9.894;2023-12-20T02:33:17;100606.56;;;4.47;100.00
21781;BME280;52576;53.614;9.894;2023-12-20T02:35:20;100606.41;;;4.50;100.00
21781;BME280;52576;53.614;9.894;2023-12-20T02:37:23;100601.16;;;4.51;100.00
21781;BME280;52576;53.614;9.894;2023-12-20T02:39:26;100598.50;;;4.53;100.00
21781;BME280;52576;53.614;9.894;2023-12-20T02:41:29;100598.44;;;4.54;100.00
21781;BME280;52576;53.614;9.894;2023-12-20T02:43:32;100600.97;;;4.56;100.00
21781;BME280;52576;53.614;9.894;2023-12-20T02:45:35;100598.31;;;4.57;100.00
21781;BME280;52576;53.614;9.894;2023-12-20T02:47:39;100585.25;;;4.59;100.00
21781;BME280;52576;53.614;9.894;2023-12-20T02:49:41;100585.13;;;4.62;100.00
21781;BME280;52576;53.614;9.894;2023-12-20T02:51:44;100591.94;;;4.64;100.00
21781;BME280;52576;53.614;9.894;2023-12-20T02:53:48;100585.00;;;4.65;100.00
21781;BME280;52576;53.614;9.894;2023-12-20T02:55:52;100575.38;;;4.67;100.00
21781;BME280;52576;53.614;9.894;2023-12-20T02:57:55;100574.44;;;4.68;100.00
21781;BME280;52576;53.614;9.894;2023-12-20T02:59:59;100571.84;;;4.68;100.00
21781;BME280;52576;53.614;9.894;2023-12-20T03:02:02;100566.50;;;4.71;100.00
21781;BME280;52576;53.614;9.894;2023-12-20T03:04:05;100560.41;;;4.72;100.00
21781;BME280;52576;53.614;9.894;2023-12-20T03:06:07;100564.75;;;4.71;100.00
21781;BME280;52576;53.614;9.894;2023-12-20T03:08:10;100560.41;;;4.72;100.00
21781;BME280;52576;53.614;9.894;2023-12-20T03:10:13;100558.72;;;4.71;100.00
21781;BME280;52576;53.614;9.894;2023-12-20T03:12:28;100563.91;;;4.71;100.00
21781;BME280;52576;53.614;9.894;2023-12-20T03:14:31;100555.34;;;4.69;100.00
21781;BME280;52576;53.614;9.894;2023-12-20T03:16:34;100557.22;;;4.67;100.00
21781;BME280;52576;53.614;9.894;2023-12-20T03:18:38;100557.22;;;4.67;100.00
21781;BME280;52576;53.614;9.894;2023-12-20T03:20:40;100558.84;;;4.68;100.00
21781;BME280;52576;53.614;9.894;2023-12-20T03:22:43;100556.38;;;4.66;100.00
21781;BME280;52576;53.614;9.894;2023-12-20T03:24:46;100552.00;;;4.67;100.00
21781;BME280;52576;53.614;9.894;2023-12-20T03:26:48;100546.81;;;4.67;100.00
21781;BME280;52576;53.614;9.894;2023-12-20T03:28:53;100551.16;;;4.66;100.00
21781;BME280;52576;53.614;9.894;2023-12-20T03:30:56;100543.44;;;4.65;100.00
21781;BME280;52576;53.614;9.894;2023-12-20T03:32:59;100543.44;;;4.65;100.00
21781;BME280;52576;53.614;9.894;2023-12-20T03:35:02;100536.56;;;4.64;100.00
21781;BME280;52576;53.614;9.894;2023-12-20T03:37:04;100538.25;;;4.65;100.00
21781;BME280;52576;53.614;9.894;2023-12-20T03:39:07;100534.75;;;4.66;100.00
21781;BME280;52576;53.614;9.894;2023-12-20T03:41:11;100527.88;;;4.65;100.00
21781;BME280;52576;53.614;9.894;2023-12-20T03:43:15;100532.22;;;4.64;100.00
21781;BME280;52576;53.614;9.894;2023-12-20T03:45:19;100529.56;;;4.66;100.00
21781;BME280;52576;53.614;9.894;2023-12-20T03:47:22;100533.06;;;4.65;100.00
21781;BME280;52576;53.614;9.894;2023-12-20T03:49:24;100530.47;;;4.65;100.00
21781;BME280;52576;53.614;9.894;2023-12-20T03:51:28;100527.88;;;4.65;100.00
21781;BME280;52576;53.614;9.894;2023-12-20T03:53:31;100514.91;;;4.65;100.00
21781;BME280;52576;53.614;9.894;2023-12-20T03:55:34;100518.34;;;4.65;100.00
21781;BME280;52576;53.614;9.894;2023-12-20T03:57:37;100514.00;;;4.66;100.00
21781;BME280;52576;53.614;9.894;2023-12-20T03:59:40;100517.31;;;4.68;100.00
21781;BME280;52576;53.614;9.894;2023-12-20T04:01:44;100514.72;;;4.68;100.00
21781;BME280;52576;53.614;9.894;2023-12-20T04:03:47;100506.94;;;4.68;100.00
21781;BME280;52576;53.614;9.894;2023-12-20T04:05:50;100512.13;;;4.68;100.00
21781;BME280;52576;53.614;9.894;2023-12-20T04:07:53;100512.13;;;4.68;100.00
21781;BME280;52576;53.614;9.894;2023-12-20T04:09:57;100508.78;;;4.66;100.00
21781;BME280;52576;53.614;9.894;2023-12-20T04:12:00;100502.69;;;4.67;100.00
21781;BME280;52576;53.614;9.894;2023-12-20T04:14:03;100492.38;;;4.65;100.00
21781;BME280;52576;53.614;9.894;2023-12-20T04:16:07;100498.41;;;4.66;100.00
21781;BME280;52576;53.614;9.894;2023-12-20T04:18:11;100488.09;;;4.64;100.00
21781;BME280;52576;53.614;9.894;2023-12-20T04:20:14;100494.13;;;4.65;100.00
21781;BME280;52576;53.614;9.894;2023-12-20T04:22:17;100478.56;;;4.65;100.00
21781;BME280;52576;53.614;9.894;2023-12-20T04:24:22;100470.78;;;4.65;100.00
21781;BME280;52576;53.614;9.894;2023-12-20T04:26:25;100475.97;;;4.65;100.00
21781;BME280;52576;53.614;9.894;2023-12-20T04:28:28;100474.28;;;4.64;100.00
21781;BME280;52576;53.614;9.894;2023-12-20T04:30:32;100470.78;;;4.65;100.00
21781;BME280;52576;53.614;9.894;2023-12-20T04:32:35;100475.97;;;4.65;100.00
21781;BME280;52576;53.614;9.894;2023-12-20T04:34:40;100470.78;;;4.65;100.00
21781;BME280;52576;53.614;9.894;2023-12-20T04:36:43;100467.25;;;4.66;100.00
21781;BME280;52576;53.614;9.894;2023-12-20T04:38:46;100456.81;;;4.67;100.00
21781;BME280;52576;53.614;9.894;2023-12-20T04:40:49;100464.59;;;4.67;100.00
21781;BME280;52576;53.614;9.894;2023-12-20T04:42:52;100453.25;;;4.68;100.00
21781;BME280;52576;53.614;9.894;2023-12-20T04:44:56;100456.69;;;4.69;100.00
21781;BME280;52576;53.614;9.894;2023-12-20T04:46:59;100450.66;;;4.68;100.00
21781;BME280;52576;53.614;9.894;2023-12-20T04:49:03;100453.25;;;4.68;100.00
21781;BME280;52576;53.614;9.894;2023-12-20T04:51:07;100451.50;;;4.69;100.00
21781;BME280;52576;53.614;9.894;2023-12-20T04:53:10;100442.81;;;4.70;100.00
21781;BME280;52576;53.614;9.894;2023-12-20T04:55:13;100449.69;;;4.71;100.00
21781;BME280;52576;53.614;9.894;2023-12-20T04:57:17;100453.06;;;4.73;99.94
21781;BME280;52576;53.614;9.894;2023-12-20T04:59:20;100442.66;;;4.73;99.85
21781;BME280;52576;53.614;9.894;2023-12-20T05:01:24;100447.72;;;4.76;99.95
21781;BME280;52576;53.614;9.894;2023-12-20T05:03:27;100432.00;;;4.79;99.85
21781;BME280;52576;53.614;9.894;2023-12-20T05:05:29;100440.56;;;4.81;99.86
21781;BME280;52576;53.614;9.894;2023-12-20T05:07:35;100429.19;;;4.84;99.99
21781;BME280;52576;53.614;9.894;2023-12-20T05:09:38;100436.06;;;4.85;99.46
21781;BME280;52576;53.614;9.894;2023-12-20T05:11:42;100430.78;;;4.86;99.60
21781;BME280;52576;53.614;9.894;2023-12-20T05:13:45;100428.97;;;4.88;99.60
21781;BME280;52576;53.614;9.894;2023-12-20T05:15:51;100427.97;;;4.91;99.38
21781;BME280;52576;53.614;9.894;2023-12-20T05:17:54;100436.59;;;4.91;99.49
21781;BME280;52576;53.614;9.894;2023-12-20T05:19:58;100445.16;;;4.93;99.22
21781;BME280;52576;53.614;9.894;2023-12-20T05:22:00;100425.13;;;4.95;99.17
21781;BME280;52576;53.614;9.894;2023-12-20T05:24:05;100422.47;;;4.97;99.15
21781;BME280;52576;53.614;9.894;2023-12-20T05:26:08;100431.09;;;4.97;99.17
21781;BME280;52576;53.614;9.894;2023-12-20T05:28:12;100436.22;;;4.99;98.85
21781;BME280;52576;53.614;9.894;2023-12-20T05:30:15;100426.66;;;4.99;98.91
21781;BME280;52576;53.614;9.894;2023-12-20T05:32:18;100418.88;;;4.99;98.71
21781;BME280;52576;53.614;9.894;2023-12-20T05:34:21;100426.66;;;4.99;98.78
21781;BME280;52576;53.614;9.894;2023-12-20T05:36:24;100429.41;;;4.96;98.90
21781;BME280;52576;53.614;9.894;2023-12-20T05:38:27;100432.91;;;4.95;99.00
21781;BME280;52576;53.614;9.894;2023-12-20T05:40:32;100427.00;;;4.93;98.95
21781;BME280;52576;53.614;9.894;2023-12-20T05:42:35;100428.88;;;4.90;99.16
21781;BME280;52576;53.614;9.894;2023-12-20T05:44:38;100420.34;;;4.88;99.31
21781;BME280;52576;53.614;9.894;2023-12-20T05:46:41;100419.56;;;4.86;99.58
21781;BME280;52576;53.614;9.894;2023-12-20T05:48:44;100419.63;;;4.84;99.51
21781;BME280;52576;53.614;9.894;2023-12-20T05:50:48;100418.88;;;4.82;99.56
21781;BME280;52576;53.614;9.894;2023-12-20T05:52:51;100419.78;;;4.81;99.86
21781;BME280;52576;53.614;9.894;2023-12-20T05:54:54;100417.25;;;4.80;99.88
21781;BME280;52576;53.614;9.894;2023-12-20T05:56:59;100409.47;;;4.80;100.00
21781;BME280;52576;53.614;9.894;2023-12-20T05:59:02;100411.22;;;4.79;99.90
21781;BME280;52576;53.614;9.894;2023-12-20T06:01:05;100414.59;;;4.81;99.95
21781;BME280;52576;53.614;9.894;2023-12-20T06:03:09;100402.53;;;4.80;100.00
21781;BME280;52576;53.614;9.894;2023-12-20T06:05:12;100402.44;;;4.82;100.00
21781;BME280;52576;53.614;9.894;2023-12-20T06:07:16;100399.84;;;4.82;100.00
21781;BME280;52576;53.614;9.894;2023-12-20T06:09:19;100392.00;;;4.83;100.00
21781;BME280;52576;53.614;9.894;2023-12-20T06:11:23;100399.78;;;4.83;100.00
21781;BME280;52576;53.614;9.894;2023-12-20T06:13:27;100394.50;;;4.85;100.00
21781;BME280;52576;53.614;9.894;2023-12-20T06:15:30;100385.81;;;4.86;100.00
21781;BME280;52576;53.614;9.894;2023-12-20T06:17:33;100393.66;;;4.84;100.00
21781;BME280;52576;53.614;9.894;2023-12-20T06:19:37;100391.06;;;4.84;100.00
21781;BME280;52576;53.614;9.894;2023-12-20T06:21:40;100392.00;;;4.83;100.00
21781;BME280;52576;53.614;9.894;2023-12-20T06:23:46;100394.59;;;4.83;100.00
21781;BME280;52576;53.614;9.894;2023-12-20T06:25:48;100397.19;;;4.83;100.00
21781;BME280;52576;53.614;9.894;2023-12-20T06:27:51;100388.47;;;4.84;99.95
21781;BME280;52576;53.614;9.894;2023-12-20T06:29:56;100384.13;;;4.85;100.00
21781;BME280;52576;53.614;9.894;2023-12-20T06:31:59;100388.41;;;4.86;99.86
21781;BME280;52576;53.614;9.894;2023-12-20T06:34:02;100387.41;;;4.88;99.80
21781;BME280;52576;53.614;9.894;2023-12-20T06:36:06;100393.38;;;4.90;99.87
21781;BME280;52576;53.614;9.894;2023-12-20T06:38:09;100375.97;;;4.92;99.73
21781;BME280;52576;53.614;9.894;2023-12-20T06:40:12;100372.44;;;4.93;99.68
21781;BME280;52576;53.614;9.894;2023-12-20T06:42:19;100367.16;;;4.95;99.57
21781;BME280;52576;53.614;9.894;2023-12-20T06:44:22;100365.25;;;4.98;99.59
21781;BME280;52576;53.614;9.894;2023-12-20T06:46:27;100362.56;;;5.00;99.24
21781;BME280;52576;53.614;9.894;2023-12-20T06:48:29;100365.09;;;5.01;99.08
21781;BME280;52576;53.614;9.894;2023-12-20T06:50:32;100372.81;;;5.03;99.10
21781;BME280;52576;53.614;9.894;2023-12-20T06:52:35;100358.91;;;5.04;98.83
21781;BME280;52576;53.614;9.894;2023-12-20T06:54:38;100349.34;;;5.04;98.93
21781;BME280;52576;53.614;9.894;2023-12-20T06:56:41;100350.19;;;5.05;99.01
21781;BME280;52576;53.614;9.894;2023-12-20T06:58:45;100347.53;;;5.06;98.91
21781;BME280;52576;53.614;9.894;2023-12-20T07:00:48;100349.22;;;5.07;98.85
21781;BME280;52576;53.614;9.894;2023-12-20T07:02:52;100336.22;;;5.07;98.81
21781;BME280;52576;53.614;9.894;2023-12-20T07:04:56;100340.50;;;5.08;98.58
21781;BME280;52576;53.614;9.894;2023-12-20T07:06:59;100332.72;;;5.08;98.66
21781;BME280;52576;53.614;9.894;2023-12-20T07:09:02;100325.81;;;5.07;98.35
21781;BME280;52576;53.614;9.894;2023-12-20T07:11:05;100324.06;;;5.08;98.46
21781;BME280;52576;53.614;9.894;2023-12-20T07:13:08;100331.78;;;5.09;98.42
21781;BME280;52576;53.614;9.894;2023-12-20T07:15:11;100330.09;;;5.08;98.16
21781;BME280;52576;53.614;9.894;2023-12-20T07:17:14;100336.16;;;5.09;98.20
21781;BME280;52576;53.614;9.894;2023-12-20T07:19:19;100331.78;;;5.09;98.25
21781;BME280;52576;53.614;9.894;2023-12-20T07:21:21;100323.06;;;5.10;98.25
21781;BME280;52576;53.614;9.894;2023-12-20T07:23:24;100335.16;;;5.11;98.25
21781;BME280;52576;53.614;9.894;2023-12-20T07:25:28;100338.50;;;5.14;98.13
21781;BME280;52576;53.614;9.894;2023-12-20T07:27:34;100328.97;;;5.14;98.06
21781;BME280;52576;53.614;9.894;2023-12-20T07:29:37;100329.81;;;5.15;98.02
21781;BME280;52576;53.614;9.894;2023-12-20T07:31:40;100336.69;;;5.16;97.97
21781;BME280;52576;53.614;9.894;2023-12-20T07:33:43;100322.78;;;5.17;97.92
21781;BME280;52576;53.614;9.894;2023-12-20T07:35:48;100325.28;;;5.18;97.89
21781;BME280;52576;53.614;9.894;2023-12-20T07:37:51;100321.78;;;5.19;97.74
21781;BME280;52576;53.614;9.894;2023-12-20T07:39:54;100325.03;;;5.23;97.88
21781;BME280;52576;53.614;9.894;2023-12-20T07:41:57;100335.34;;;5.24;97.74
21781;BME280;52576;53.614;9.894;2023-12-20T07:44:00;100322.28;;;5.26;97.59
21781;BME280;52576;53.614;9.894;2023-12-20T07:46:04;100326.56;;;5.27;97.52
21781;BME280;52576;53.614;9.894;2023-12-20T07:48:08;100319.59;;;5.27;97.48
21781;BME280;52576;53.614;9.894;2023-12-20T07:50:11;100318.59;;;5.30;97.51
21781;BME280;52576;53.614;9.894;2023-12-20T07:52:15;100314.25;;;5.30;97.44
21781;BME280;52576;53.614;9.894;2023-12-20T07:54:19;100309.88;;;5.31;97.29
21781;BME280;52576;53.614;9.894;2023-12-20T07:56:22;100313.25;;;5.33;97.31
21781;BME280;52576;53.614;9.894;2023-12-20T07:58:26;100311.50;;;5.33;97.26
21781;BME280;52576;53.614;9.894;2023-12-20T08:00:51;100309.72;;;5.34;97.04
21781;BME280;52576;53.614;9.894;2023-12-20T08:02:54;100307.91;;;5.36;96.98
21781;BME280;52576;53.614;9.894;2023-12-20T08:04:57;100317.38;;;5.37;96.87
21781;BME280;52576;53.614;9.894;2023-12-20T08:07:00;100299.94;;;5.39;96.82
21781;BME280;52576;53.614;9.894;2023-12-20T08:09:04;100302.38;;;5.42;96.63
21781;BME280;52576;53.614;9.894;2023-12-20T08:11:08;100302.22;;;5.45;96.23
21781;BME280;52576;53.614;9.894;2023-12-20T08:13:11;100296.84;;;5.48;96.08
21781;BME280;52576;53.614;9.894;2023-12-20T08:15:14;100288.03;;;5.51;96.09
21781;BME280;52576;53.614;9.894;2023-12-20T08:17:18;100295.75;;;5.52;95.99
21781;BME280;52576;53.614;9.894;2023-12-20T08:19:21;100287.94;;;5.52;96.00
21781;BME280;52576;53.614;9.894;2023-12-20T08:21:24;100274.19;;;5.50;95.92
21781;BME280;52576;53.614;9.894;2023-12-20T08:23:26;100256.00;;;5.50;95.86
21781;BME280;52576;53.614;9.894;2023-12-20T08:25:34;100272.53;;;5.49;95.80
21781;BME280;52576;53.614;9.894;2023-12-20T08:27:39;100264.63;;;5.51;95.83
21781;BME280;52576;53.614;9.894;2023-12-20T08:29:43;100260.28;;;5.51;95.80
21781;BME280;52576;53.614;9.894;2023-12-20T08:31:46;100258.44;;;5.53;95.80
21781;BME280;52576;53.614;9.894;2023-12-20T08:33:54;100262.63;;;5.56;95.79
21781;BME280;52576;53.614;9.894;2023-12-20T08:35:57;100268.50;;;5.59;95.71
21781;BME280;52576;53.614;9.894;2023-12-20T08:38:01;100263.06;;;5.64;95.72
21781;BME280;52576;53.614;9.894;2023-12-20T08:40:05;100254.94;;;5.70;95.53
21781;BME280;52576;53.614;9.894;2023-12-20T08:42:10;100251.91;;;5.77;95.59
21781;BME280;52576;53.614;9.894;2023-12-20T08:44:13;100255.09;;;5.83;95.44
21781;BME280;52576;53.614;9.894;2023-12-20T08:46:15;100246.19;;;5.87;95.24
21781;BME280;52576;53.614;9.894;2023-12-20T08:48:18;100246.13;;;5.88;94.90
21781;BME280;52576;53.614;9.894;2023-12-20T08:50:20;100266.91;;;5.88;94.93
21781;BME280;52576;53.614;9.894;2023-12-20T08:52:23;100242.84;;;5.85;94.71
21781;BME280;52576;53.614;9.894;2023-12-20T08:54:29;100243.94;;;5.80;94.98
21781;BME280;52576;53.614;9.894;2023-12-20T08:56:32;100238.06;;;5.77;95.24
21781;BME280;52576;53.614;9.894;2023-12-20T08:58:35;100247.78;;;5.73;95.14
21781;BME280;52576;53.614;9.894;2023-12-20T09:00:38;100246.31;;;5.69;95.13
21781;BME280;52576;53.614;9.894;2023-12-20T09:02:41;100237.00;;;5.65;95.27
21781;BME280;52576;53.614;9.894;2023-12-20T09:04:44;100236.31;;;5.62;95.31
21781;BME280;52576;53.614;9.894;2023-12-20T09:06:47;100243.44;;;5.58;95.28
21781;BME280;52576;53.614;9.894;2023-12-20T09:08:51;100239.31;;;5.54;95.29
21781;BME280;52576;53.614;9.894;2023-12-20T09:10:54;100258.59;;;5.50;95.28
21781;BME280;52576;53.614;9.894;2023-12-20T09:12:58;100258.97;;;5.44;95.47
21781;BME280;52576;53.614;9.894;2023-12-20T09:15:03;100242.00;;;5.37;95.59
21781;BME280;52576;53.614;9.894;2023-12-20T09:17:06;100254.41;;;5.32;95.96
21781;BME280;52576;53.614;9.894;2023-12-20T09:19:10;100285.81;;;5.27;96.22
21781;BME280;52576;53.614;9.894;2023-12-20T09:21:13;100274.81;;;5.22;96.65
21781;BME280;52576;53.614;9.894;2023-12-20T09:23:17;100266.47;;;5.17;96.96
21781;BME280;52576;53.614;9.894;2023-12-20T09:25:20;100251.03;;;5.14;97.31
21781;BME280;52576;53.614;9.894;2023-12-20T09:27:25;100266.09;;;5.07;97.72
21781;BME280;52576;53.614;9.894;2023-12-20T09:29:29;100266.25;;;5.04;97.92
21781;BME280;52576;53.614;9.894;2023-12-20T09:31:36;100254.31;;;5.00;98.10
21781;BME280;52576;53.614;9.894;2023-12-20T09:33:38;100256.16;;;4.98;98.26
21781;BME280;52576;53.614;9.894;2023-12-20T09:35:42;100265.78;;;4.96;98.36
21781;BME280;52576;53.614;9.894;2023-12-20T09:37:44;100274.56;;;4.94;98.18
21781;BME280;52576;53.614;9.894;2023-12-20T09:39:49;100285.06;;;4.92;98.33
21781;BME280;52576;53.614;9.894;2023-12-20T09:42:00;100312.03;;;4.90;98.02
21781;BME280;52576;53.614;9.894;2023-12-20T09:44:03;100273.31;;;4.85;97.10
21781;BME280;52576;53.614;9.894;2023-12-20T09:46:06;100303.84;;;4.80;96.48
21781;BME280;52576;53.614;9.894;2023-12-20T09:48:12;100298.97;;;4.74;95.86
21781;BME280;52576;53.614;9.894;2023-12-20T09:50:17;100309.66;;;4.68;95.92
21781;BME280;52576;53.614;9.894;2023-12-20T09:52:22;100282.34;;;4.61;95.88
21781;BME280;52576;53.614;9.894;2023-12-20T09:54:28;100280.81;;;4.57;96.00
21781;BME280;52576;53.614;9.894;2023-12-20T09:56:33;100279.28;;;4.53;95.97
21781;BME280;52576;53.614;9.894;2023-12-20T09:58:37;100281.19;;;4.49;95.93
21781;BME280;52576;53.614;9.894;2023-12-20T10:00:41;100267.50;;;4.46;95.72
21781;BME280;52576;53.614;9.894;2023-12-20T10:02:50;100262.47;;;4.42;95.79
21781;BME280;52576;53.614;9.894;2023-12-20T10:04:54;100273.94;;;4.38;95.69
21781;BME280;52576;53.614;9.894;2023-12-20T10:07:01;100268.91;;;4.35;95.79
21781;BME280;52576;53.614;9.894;2023-12-20T10:09:08;100295.91;;;4.31;95.70
21781;BME280;52576;53.614;9.894;2023-12-20T10:11:10;100293.38;;;4.30;95.84
21781;BME280;52576;53.614;9.894;2023-12-20T10:13:14;100303.75;;;4.30;95.79
21781;BME280;52576;53.614;9.894;2023-12-20T10:15:17;100312.47;;;4.29;95.80
21781;BME280;52576;53.614;9.894;2023-12-20T10:17:21;100319.31;;;4.30;95.72
21781;BME280;52576;53.614;9.894;2023-12-20T10:19:25;100312.47;;;4.29;95.74
21781;BME280;52576;53.614;9.894;2023-12-20T10:21:29;100308.09;;;4.29;95.72
21781;BME280;52576;53.614;9.894;2023-12-20T10:23:33;100296.81;;;4.30;95.59
21781;BME280;52576;53.614;9.894;2023-12-20T10:25:36;100285.53;;;4.31;95.44
21781;BME280;52576;53.614;9.894;2023-12-20T10:27:39;100289.81;;;4.32;95.21
21781;BME280;52576;53.614;9.894;2023-12-20T10:29:41;100281.94;;;4.34;95.17
21781;BME280;52576;53.614;9.894;2023-12-20T10:31:44;100285.38;;;4.34;95.28
21781;BME280;52576;53.614;9.894;2023-12-20T10:33:48;100281.88;;;4.35;95.30
21781;BME280;52576;53.614;9.894;2023-12-20T10:35:52;100275.78;;;4.36;95.21
21781;BME280;52576;53.614;9.894;2023-12-20T10:37:58;100281.72;;;4.38;95.36
21781;BME280;52576;53.614;9.894;2023-12-20T10:40:06;100270.44;;;4.39;95.49
21781;BME280;52576;53.614;9.894;2023-12-20T10:42:11;100267.84;;;4.39;95.29
21781;BME280;52576;53.614;9.894;2023-12-20T10:44:15;100270.50;;;4.38;95.23
21781;BME280;52576;53.614;9.894;2023-12-20T10:46:19;100267.16;;;4.36;95.46
21781;BME280;52576;53.614;9.894;2023-12-20T10:48:22;100264.56;;;4.36;95.46
21781;BME280;52576;53.614;9.894;2023-12-20T10:50:31;100261.13;;;4.35;95.50